Pont-a-Celles, Belgium
Current Conditions -  °F | °C
As of 1:20 PM on Sunday 25 Jan 2015 (Local Time) from EBCI Reporting Station
Few Clouds Few Clouds  
Wind Chill: 32°   Ceiling: Unl
Heat Index: 37°   Visibility: 4mi
Dew Point: 36°   Wind: 7mph
Humidity: 93%   Direction: 250°WSW
Pressure: 30.42"   Gusts: NA
Location:  50.51°N, 4.37°E
Report Text: EBCI 251220Z 25006KT 7000 FEW007 03/02 Q1030 R25/290095 TEMPO BKN007
Loading
Personal Weather Stations






























Interactive Weather Map New forecast layout! Learn more

10-Day Weather Forecast

Advertisements
Track Severe Weather on mobile